createdAt,value
2022-10-26T00:02:01.724Z,98465.47
2022-10-26T00:05:04.059Z,98473.00
2022-10-26T00:08:06.869Z,98467.56
2022-10-26T00:11:09.247Z,98473.38
2022-10-26T00:14:11.637Z,98475.47
2022-10-26T00:17:13.858Z,98471.59
2022-10-26T00:20:16.037Z,98475.31
2022-10-26T00:23:18.461Z,98479.47
2022-10-26T00:26:20.299Z,98476.69
2022-10-26T00:29:23.059Z,98468.03
2022-10-26T00:32:25.035Z,98475.00
2022-10-26T00:35:44.475Z,98467.75
2022-10-26T00:38:52.410Z,98461.84
2022-10-26T00:41:57.303Z,98465.13
2022-10-26T00:45:24.344Z,98464.94
2022-10-26T00:48:29.101Z,98461.19
2022-10-26T00:51:37.125Z,98452.94
2022-10-26T00:54:38.973Z,98448.41
2022-10-26T00:57:41.659Z,98457.19
2022-10-26T01:00:46.771Z,98456.22
2022-10-26T01:03:50.222Z,98447.13
2022-10-26T01:06:53.012Z,98450.47
2022-10-26T01:09:58.499Z,98448.63
2022-10-26T01:13:00.607Z,98447.06
2022-10-26T01:16:08.099Z,98455.34
2022-10-26T01:19:25.803Z,98444.16
2022-10-26T01:22:40.873Z,98457.50
2022-10-26T01:25:51.915Z,98453.91
2022-10-26T01:29:02.658Z,98456.94
2022-10-26T01:32:16.690Z,98449.22
2022-10-26T01:35:30.725Z,98451.44
2022-10-26T01:38:44.947Z,98456.28
2022-10-26T01:41:49.335Z,98448.16
2022-10-26T01:44:59.985Z,98450.66
2022-10-26T01:48:03.618Z,98451.91
2022-10-26T01:51:06.431Z,98457.50
2022-10-26T01:54:08.267Z,98453.41
2022-10-26T01:57:12.353Z,98449.19
2022-10-26T02:00:14.522Z,98452.88
2022-10-26T02:03:40.704Z,98448.41
2022-10-26T02:07:04.509Z,98451.13
2022-10-26T02:10:20.121Z,98455.91
2022-10-26T02:13:29.720Z,98449.09
2022-10-26T02:16:40.092Z,98449.84
2022-10-26T02:19:41.952Z,98457.38
2022-10-26T02:22:47.621Z,98454.06
2022-10-26T02:25:51.968Z,98455.84
2022-10-26T02:28:56.099Z,98453.94
2022-10-26T02:31:58.139Z,98455.56
2022-10-26T02:35:00.542Z,98452.00
2022-10-26T02:38:05.702Z,98464.38
2022-10-26T02:41:09.357Z,98464.13
2022-10-26T02:44:23.659Z,98464.72
2022-10-26T02:47:26.474Z,98465.28
2022-10-26T02:50:34.271Z,98470.94
2022-10-26T02:53:40.578Z,98470.13
2022-10-26T02:56:49.159Z,98469.50
2022-10-26T02:59:51.211Z,98476.66
2022-10-26T03:02:59.004Z,98468.59
2022-10-26T03:06:09.829Z,98477.78
2022-10-26T03:09:11.504Z,98462.75
2022-10-26T03:12:13.308Z,98467.00
2022-10-26T03:15:15.806Z,98470.13
2022-10-26T03:18:17.610Z,98472.59
2022-10-26T03:21:19.516Z,98454.28
2022-10-26T03:24:21.329Z,98470.25
2022-10-26T03:27:23.378Z,98471.81
2022-10-26T03:30:25.469Z,98472.66
2022-10-26T03:33:28.014Z,98469.19
2022-10-26T03:36:29.865Z,98460.38
2022-10-26T03:39:31.567Z,98461.34
2022-10-26T03:42:37.080Z,98468.94
2022-10-26T03:45:38.898Z,98465.59
2022-10-26T03:48:40.777Z,98463.81
2022-10-26T03:51:42.489Z,98459.66
2022-10-26T03:54:44.358Z,98461.31
2022-10-26T03:57:46.321Z,98471.78
2022-10-26T04:00:48.295Z,98473.56
2022-10-26T04:03:50.137Z,98470.34
2022-10-26T04:06:53.247Z,98472.06
2022-10-26T04:09:56.596Z,98470.66
2022-10-26T04:13:02.069Z,98479.56
2022-10-26T04:16:04.364Z,98463.28
2022-10-26T04:19:06.232Z,98462.56
2022-10-26T04:22:08.104Z,98464.22
2022-10-26T04:25:11.510Z,98466.16
2022-10-26T04:28:14.326Z,98461.28
2022-10-26T04:31:16.458Z,98449.03
2022-10-26T04:34:18.259Z,98452.50
2022-10-26T04:37:20.321Z,98456.53
2022-10-26T04:40:22.150Z,98454.53
2022-10-26T04:43:24.059Z,98458.84
2022-10-26T04:46:25.968Z,98466.91
2022-10-26T04:49:27.839Z,98459.03
2022-10-26T04:52:29.895Z,98463.31
2022-10-26T04:55:34.744Z,98464.03
2022-10-26T04:58:36.678Z,98460.25
2022-10-26T05:01:39.008Z,98467.78
2022-10-26T05:04:41.226Z,98459.47
2022-10-26T05:07:43.479Z,98463.88
2022-10-26T05:10:52.357Z,98463.88
2022-10-26T05:13:54.796Z,98451.03
2022-10-26T05:16:58.005Z,98464.44
2022-10-26T05:20:06.254Z,98459.13
2022-10-26T05:23:12.208Z,98469.53
2022-10-26T05:26:14.380Z,98473.13
2022-10-26T05:29:16.164Z,98471.09
2022-10-26T05:32:19.371Z,98467.91
2022-10-26T05:35:22.182Z,98474.88
2022-10-26T05:38:24.447Z,98474.41
2022-10-26T05:41:27.293Z,98470.84
2022-10-26T05:44:32.334Z,98478.56
2022-10-26T05:47:42.279Z,98471.78
2022-10-26T05:50:45.506Z,98472.13
2022-10-26T05:53:47.431Z,98483.34
2022-10-26T05:56:50.259Z,98479.09
2022-10-26T05:59:52.421Z,98482.63
2022-10-26T06:03:12.890Z,98484.38
2022-10-26T06:06:15.377Z,98484.09
2022-10-26T06:09:17.986Z,98487.47
2022-10-26T06:12:20.787Z,98483.78
2022-10-26T06:15:23.331Z,98492.91
2022-10-26T06:18:28.624Z,98490.34
2022-10-26T06:21:48.099Z,98497.97
2022-10-26T06:25:02.295Z,98501.31
2022-10-26T06:28:13.654Z,98499.13
2022-10-26T06:31:17.261Z,98502.94
2022-10-26T06:34:28.921Z,98504.22
2022-10-26T06:37:31.540Z,98500.00
2022-10-26T06:40:36.613Z,98509.84
2022-10-26T06:43:38.777Z,98504.56
2022-10-26T06:47:01.938Z,98511.25
2022-10-26T06:50:18.047Z,98512.19
2022-10-26T06:53:45.046Z,98514.00
2022-10-26T06:56:47.623Z,98521.34
2022-10-26T06:59:53.038Z,98520.41
2022-10-26T07:02:55.575Z,98512.22
2022-10-26T07:05:57.933Z,98518.31
2022-10-26T07:09:00.831Z,98521.34
2022-10-26T07:12:04.116Z,98513.91
2022-10-26T07:18:12.447Z,98526.13
2022-10-26T07:21:14.371Z,98523.97
2022-10-26T07:24:16.722Z,98532.97
2022-10-26T07:27:21.992Z,98533.44
2022-10-26T07:30:25.767Z,98526.88
2022-10-26T07:33:29.014Z,98531.19
2022-10-26T07:36:32.909Z,98531.94
2022-10-26T07:39:35.071Z,98536.94
2022-10-26T07:42:37.626Z,98527.81
2022-10-26T07:45:40.883Z,98533.91
2022-10-26T07:51:50.298Z,98527.22
2022-10-26T07:54:52.745Z,98532.19
2022-10-26T07:57:56.124Z,98525.13
2022-10-26T08:01:06.699Z,98531.66
2022-10-26T08:04:08.775Z,98532.19
2022-10-26T08:07:11.785Z,98533.56
2022-10-26T08:10:14.731Z,98538.41
2022-10-26T08:13:18.561Z,98531.63
2022-10-26T08:16:29.367Z,98527.91
2022-10-26T08:19:41.836Z,98525.03
2022-10-26T08:22:47.221Z,98533.72
2022-10-26T08:25:53.250Z,98535.25
2022-10-26T08:29:03.671Z,98541.44
2022-10-26T08:32:13.531Z,98534.00
2022-10-26T08:35:15.711Z,98539.53
2022-10-26T08:38:19.683Z,98538.41
2022-10-26T08:41:34.567Z,98541.16
2022-10-26T08:44:41.722Z,98541.88
2022-10-26T08:47:48.304Z,98540.91
2022-10-26T08:51:01.480Z,98541.31
2022-10-26T08:54:17.174Z,98549.03
2022-10-26T08:57:26.826Z,98541.16
2022-10-26T09:00:31.065Z,98536.97
2022-10-26T09:03:33.777Z,98541.53
2022-10-26T09:07:02.425Z,98535.16
2022-10-26T09:10:16.453Z,98540.66
2022-10-26T09:13:40.330Z,98541.03
2022-10-26T09:16:52.265Z,98549.72
2022-10-26T09:20:12.937Z,98544.09
2022-10-26T09:23:29.930Z,98545.81
2022-10-26T09:26:33.381Z,98551.44
2022-10-26T09:29:43.019Z,98554.03
2022-10-26T09:32:56.430Z,98553.19
2022-10-26T09:36:02.029Z,98552.97
2022-10-26T09:39:39.130Z,98554.59
2022-10-26T09:43:01.682Z,98554.59
2022-10-26T09:46:04.026Z,98556.97
2022-10-26T09:49:07.780Z,98559.94
2022-10-26T09:52:12.906Z,98567.69
2022-10-26T09:55:16.003Z,98559.81
2022-10-26T09:58:22.692Z,98555.66
2022-10-26T10:01:28.480Z,98558.47
2022-10-26T10:04:34.113Z,98549.88
2022-10-26T10:07:39.955Z,98553.47
2022-10-26T10:10:56.682Z,98547.19
2022-10-26T10:14:07.693Z,98548.00
2022-10-26T10:17:21.993Z,98558.91
2022-10-26T10:20:31.954Z,98565.03
2022-10-26T10:23:36.536Z,98564.19
2022-10-26T10:27:06.180Z,98561.00
2022-10-26T10:30:29.766Z,98559.63
2022-10-26T10:33:37.671Z,98560.31
2022-10-26T10:36:40.631Z,98555.16
2022-10-26T10:39:42.746Z,98550.06
2022-10-26T10:42:45.562Z,98545.75
2022-10-26T10:45:50.407Z,98559.13
2022-10-26T10:48:55.984Z,98557.75
2022-10-26T10:51:59.188Z,98554.06
2022-10-26T10:55:15.566Z,98542.59
2022-10-26T10:58:25.048Z,98551.13
2022-10-26T11:01:32.649Z,98544.38
2022-10-26T11:04:41.223Z,98531.16
2022-10-26T11:08:11.169Z,98535.22
2022-10-26T11:11:26.288Z,98540.81
2022-10-26T11:14:46.384Z,98538.28
2022-10-26T11:18:00.580Z,98541.03
2022-10-26T11:21:29.736Z,98530.13
2022-10-26T11:24:43.280Z,98528.31
2022-10-26T11:28:13.811Z,98532.41
2022-10-26T11:31:26.815Z,98532.06
2022-10-26T11:34:39.079Z,98533.84
2022-10-26T11:40:48.955Z,98530.22
2022-10-26T11:44:37.241Z,98540.16
2022-10-26T11:47:49.381Z,98539.09
2022-10-26T11:50:54.968Z,98531.44
2022-10-26T11:53:58.950Z,98537.16
2022-10-26T11:57:02.073Z,98544.81
2022-10-26T12:00:05.833Z,98536.09
2022-10-26T12:03:11.662Z,98537.72
2022-10-26T12:06:15.265Z,98534.22
2022-10-26T12:09:35.568Z,98534.31
2022-10-26T12:13:04.499Z,98538.44
2022-10-26T12:16:26.350Z,98544.13
2022-10-26T12:19:34.177Z,98546.91
2022-10-26T12:22:41.336Z,98548.38
2022-10-26T12:25:43.921Z,98542.00
2022-10-26T12:28:47.233Z,98548.03
2022-10-26T12:31:51.335Z,98551.16
2022-10-26T12:34:58.722Z,98543.97
2022-10-26T12:38:02.785Z,98536.78
2022-10-26T12:41:12.529Z,98543.06
2022-10-26T12:44:33.200Z,98540.38
2022-10-26T12:47:35.167Z,98536.22
2022-10-26T12:50:37.745Z,98543.34
2022-10-26T12:53:41.946Z,98539.53
2022-10-26T12:57:07.367Z,98522.69
2022-10-26T13:00:15.995Z,98540.03
2022-10-26T13:03:54.909Z,98531.75
2022-10-26T13:07:15.153Z,98540.53
2022-10-26T13:10:24.850Z,98533.88
2022-10-26T13:13:27.620Z,98529.38
2022-10-26T13:16:30.067Z,98532.47
2022-10-26T13:19:47.761Z,98533.50
2022-10-26T13:22:50.605Z,98537.03
2022-10-26T13:26:08.487Z,98534.56
2022-10-26T13:29:10.990Z,98534.66
2022-10-26T13:32:14.189Z,98535.50
2022-10-26T13:35:17.565Z,98538.69
2022-10-26T13:38:21.319Z,98547.13
2022-10-26T13:41:28.599Z,98547.13
2022-10-26T13:44:52.404Z,98546.59
2022-10-26T13:48:06.552Z,98550.28
2022-10-26T13:51:21.134Z,98560.31
2022-10-26T13:54:37.042Z,98564.66
2022-10-26T13:58:05.277Z,98568.16
2022-10-26T14:01:12.174Z,98568.31
2022-10-26T14:04:18.784Z,98573.16
2022-10-26T14:07:27.379Z,98572.00
2022-10-26T14:10:31.125Z,98573.97
2022-10-26T14:13:37.081Z,98571.84
2022-10-26T14:16:47.317Z,98580.13
2022-10-26T14:19:50.550Z,98574.00
2022-10-26T14:22:52.795Z,98585.59
2022-10-26T14:25:59.149Z,98585.25
2022-10-26T14:29:02.483Z,98585.56
2022-10-26T14:32:30.371Z,98585.09
2022-10-26T14:35:36.548Z,98581.59
2022-10-26T14:38:51.523Z,98586.56
2022-10-26T14:41:54.196Z,98587.91
2022-10-26T14:44:57.959Z,98584.59
2022-10-26T14:48:01.413Z,98586.56
2022-10-26T14:51:16.969Z,98599.66
2022-10-26T14:54:25.288Z,98595.19
2022-10-26T14:57:36.253Z,98590.06
2022-10-26T15:00:38.611Z,98598.13
2022-10-26T15:03:42.146Z,98596.50
2022-10-26T15:06:46.194Z,98595.84
2022-10-26T15:09:53.450Z,98604.44
2022-10-26T15:12:55.611Z,98606.06
2022-10-26T15:16:19.037Z,98614.00
2022-10-26T15:19:24.185Z,98606.22
2022-10-26T15:22:31.718Z,98615.81
2022-10-26T15:25:35.689Z,98618.09
2022-10-26T15:28:39.090Z,98622.56
2022-10-26T15:31:41.052Z,98620.25
2022-10-26T15:34:43.326Z,98621.84
2022-10-26T15:37:50.715Z,98630.13
2022-10-26T15:40:53.188Z,98626.47
2022-10-26T15:43:57.618Z,98627.81
2022-10-26T15:47:05.087Z,98630.59
2022-10-26T15:50:21.979Z,98636.88
2022-10-26T15:53:29.009Z,98635.91
2022-10-26T15:56:31.923Z,98638.50
2022-10-26T15:59:33.996Z,98638.38
2022-10-26T16:02:37.144Z,98639.63
2022-10-26T16:05:39.198Z,98650.19
2022-10-26T16:08:41.552Z,98641.94
2022-10-26T16:11:44.590Z,98650.13
2022-10-26T16:15:04.403Z,98656.72
2022-10-26T16:18:07.654Z,98649.78
2022-10-26T16:21:14.684Z,98652.38
2022-10-26T16:24:17.504Z,98655.19
2022-10-26T16:27:19.781Z,98652.38
2022-10-26T16:30:24.750Z,98658.97
2022-10-26T16:33:29.216Z,98649.75
2022-10-26T16:36:34.381Z,98651.03
2022-10-26T16:39:36.530Z,98658.06
2022-10-26T16:42:43.961Z,98670.38
2022-10-26T16:45:46.342Z,98675.31
2022-10-26T16:48:51.924Z,98666.31
2022-10-26T16:51:54.068Z,98660.09
2022-10-26T16:54:56.491Z,98667.56
2022-10-26T16:57:59.042Z,98670.97
2022-10-26T17:01:01.383Z,98678.75
2022-10-26T17:07:06.157Z,98683.28
2022-10-26T17:10:08.575Z,98697.97
2022-10-26T17:13:10.829Z,98706.22
2022-10-26T17:16:22.621Z,98702.66
2022-10-26T17:19:24.612Z,98705.75
2022-10-26T17:22:26.844Z,98715.09
2022-10-26T17:25:29.394Z,98721.34
2022-10-26T17:28:32.570Z,98712.16
2022-10-26T17:31:35.201Z,98720.47
2022-10-26T17:34:37.990Z,98717.59
2022-10-26T17:37:43.887Z,98717.50
2022-10-26T17:40:45.854Z,98717.50
2022-10-26T17:43:49.370Z,98726.22
2022-10-26T17:46:51.592Z,98723.16
2022-10-26T17:49:53.641Z,98723.53
2022-10-26T17:52:56.060Z,98723.00
2022-10-26T17:56:06.706Z,98734.75
2022-10-26T17:59:13.105Z,98743.53
2022-10-26T18:02:16.097Z,98745.16
2022-10-26T18:05:18.413Z,98743.75
2022-10-26T18:08:20.748Z,98746.34
2022-10-26T18:11:27.226Z,98746.88
2022-10-26T18:14:29.549Z,98748.00
2022-10-26T18:17:31.726Z,98752.28
2022-10-26T18:20:34.768Z,98754.38
2022-10-26T18:23:37.584Z,98754.72
2022-10-26T18:26:39.611Z,98756.16
2022-10-26T18:29:41.851Z,98759.50
2022-10-26T18:32:44.417Z,98761.84
2022-10-26T18:35:46.989Z,98758.81
2022-10-26T18:38:49.436Z,98762.91
2022-10-26T18:41:51.364Z,98763.91
2022-10-26T18:44:53.467Z,98756.16
2022-10-26T18:47:55.437Z,98762.38
2022-10-26T18:50:58.031Z,98766.47
2022-10-26T18:54:00.717Z,98776.00
2022-10-26T18:57:02.933Z,98772.50
2022-10-26T19:00:05.557Z,98766.22
2022-10-26T19:03:08.387Z,98771.03
2022-10-26T19:06:25.636Z,98768.84
2022-10-26T19:09:27.754Z,98778.63
2022-10-26T19:12:29.944Z,98786.41
2022-10-26T19:15:34.213Z,98793.50
2022-10-26T19:18:36.176Z,98796.44
2022-10-26T19:21:38.308Z,98799.97
2022-10-26T19:24:40.637Z,98803.53
2022-10-26T19:27:45.331Z,98802.84
2022-10-26T19:30:47.361Z,98804.94
2022-10-26T19:33:49.190Z,98812.03
2022-10-26T19:36:51.341Z,98806.34
2022-10-26T19:39:53.533Z,98810.09
2022-10-26T19:42:57.701Z,98823.56
2022-10-26T19:46:06.751Z,98819.56
2022-10-26T19:49:09.005Z,98827.44
2022-10-26T19:52:11.570Z,98827.81
2022-10-26T19:55:14.001Z,98832.50
2022-10-26T19:58:16.248Z,98833.59
2022-10-26T20:01:18.483Z,98833.59
2022-10-26T20:04:20.707Z,98838.59
2022-10-26T20:07:23.188Z,98848.59
2022-10-26T20:10:26.142Z,98855.00
2022-10-26T20:13:28.000Z,98851.53
2022-10-26T20:16:33.182Z,98858.91
2022-10-26T20:19:35.521Z,98863.09
2022-10-26T20:22:37.497Z,98868.22
2022-10-26T20:25:50.630Z,98861.16
2022-10-26T20:28:53.094Z,98859.78
2022-10-26T20:31:56.202Z,98857.84
2022-10-26T20:34:58.218Z,98868.66
2022-10-26T20:38:00.719Z,98871.09
2022-10-26T20:41:06.175Z,98873.47
2022-10-26T20:44:18.528Z,98875.41
2022-10-26T20:47:20.880Z,98876.22
2022-10-26T20:50:24.206Z,98882.53
2022-10-26T20:53:39.645Z,98880.88
2022-10-26T20:56:42.260Z,98884.63
2022-10-26T20:59:52.309Z,98887.97
2022-10-26T21:02:54.003Z,98892.13
2022-10-26T21:05:56.699Z,98887.16
2022-10-26T21:08:58.870Z,98886.03
2022-10-26T21:12:01.021Z,98896.72
2022-10-26T21:15:02.816Z,98899.91
2022-10-26T21:18:04.733Z,98904.88
2022-10-26T21:21:06.831Z,98902.69
2022-10-26T21:24:08.804Z,98896.44
2022-10-26T21:27:10.851Z,98903.09
2022-10-26T21:30:14.316Z,98903.22
2022-10-26T21:33:18.031Z,98901.00
2022-10-26T21:36:22.656Z,98905.16
2022-10-26T21:39:24.682Z,98901.84
2022-10-26T21:42:26.839Z,98901.00
2022-10-26T21:45:28.865Z,98902.13
2022-10-26T21:48:31.766Z,98913.75
2022-10-26T21:51:35.088Z,98902.97
2022-10-26T21:54:36.855Z,98902.53
2022-10-26T21:57:38.925Z,98898.25
2022-10-26T22:00:40.775Z,98911.81
2022-10-26T22:03:43.356Z,98907.38
2022-10-26T22:06:45.947Z,98909.03
2022-10-26T22:10:07.635Z,98908.63
2022-10-26T22:13:09.519Z,98912.22
2022-10-26T22:16:14.164Z,98906.50
2022-10-26T22:19:15.891Z,98909.84
2022-10-26T22:22:17.641Z,98902.66
2022-10-26T22:25:19.340Z,98905.84
2022-10-26T22:28:21.206Z,98905.09
2022-10-26T22:31:28.953Z,98905.38
2022-10-26T22:34:30.999Z,98906.22
2022-10-26T22:37:32.694Z,98905.66
2022-10-26T22:40:34.582Z,98901.63
2022-10-26T22:43:36.727Z,98909.81
2022-10-26T22:46:38.510Z,98907.72
2022-10-26T22:49:40.317Z,98903.97
2022-10-26T22:52:42.050Z,98909.25
2022-10-26T22:55:45.440Z,98913.25
2022-10-26T22:58:47.478Z,98914.78
2022-10-26T23:01:49.452Z,98909.63
2022-10-26T23:04:51.444Z,98903.41
2022-10-26T23:07:53.609Z,98914.63
2022-10-26T23:11:00.499Z,98917.50
2022-10-26T23:14:03.180Z,98914.88
2022-10-26T23:17:06.269Z,98912.41
2022-10-26T23:20:08.805Z,98914.88
2022-10-26T23:23:10.550Z,98918.34
2022-10-26T23:26:17.494Z,98912.41
2022-10-26T23:29:19.235Z,98915.03
2022-10-26T23:32:21.010Z,98918.88
2022-10-26T23:35:23.355Z,98913.06
2022-10-26T23:38:25.823Z,98915.56
2022-10-26T23:41:29.004Z,98929.16
2022-10-26T23:44:30.913Z,98922.25
2022-10-26T23:47:32.664Z,98927.38
2022-10-26T23:50:34.397Z,98927.22
2022-10-26T23:53:36.197Z,98925.28
2022-10-26T23:56:38.138Z,98929.88
2022-10-26T23:59:39.937Z,98928.88
